Wetterstation:     Jahr:     Auswahl:
Download: tageswerte-lorch-2024.csv
 
 
Datum
Temp. 2 m
Mittel
[⁰C]
Temp. 2 m
Maximum
[⁰C]
Temp. 2 m
Minimum
[⁰C]
rel. Feuchte
Mittel
[%]
Wind
Mittel
[m/s]
Regen
Summe
[mm]
Strahlung
Summe
[Wh/m²]
Bogrebe
Minimum
[⁰C]
01.01.2024 7,5 9,2 6,0 78,5 1,6 0,0 511,0 5,7
02.01.2024 9,2 11,5 7,1 85,4 2,7 15,2 267,0 6,9
03.01.2024 10,6 13,2 7,5 76,4 2,0 7,5 1120,0 7,1
04.01.2024 8,2 11,0 4,7 81,1 1,7 0,1 886,9 3,6
05.01.2024 7,2 11,1 3,4 79,3 1,8 0,0 817,0 2,7
06.01.2024 5,1 6,9 3,5 86,9 1,1 0,7 230,0 3,2
07.01.2024 2,0 3,6 -0,8 80,8 1,2 0,3 143,9 -1,1
08.01.2024 -1,6 1,3 -6,2 63,9 0,8 0,0 1325,7 -6,6
09.01.2024 -4,7 3,5 -8,3 70,6 0,9 0,0 1852,4 -8,7
10.01.2024 -4,6 1,3 -8,0 73,3 0,9 0,0 1372,7 -8,4
11.01.2024 -3,8 2,7 -7,9 79,9 0,9 0,0 1933,5 -8,3
12.01.2024 -1,6 -0,2 -4,9 90,0 0,9 0,0 227,3 -5,4
13.01.2024 0,5 1,2 -0,3 84,6 0,8 0,0 224,0 -0,7
14.01.2024 0,1 2,1 -1,6 81,0 1,0 0,0 807,1 -1,8
15.01.2024 0,9 3,3 -1,4 76,8 1,9 0,0 695,9 -1,6
16.01.2024 -0,1 5,3 -5,3 74,1 0,9 0,0 1285,9 -5,8
17.01.2024 -2,0 0,8 -5,9 91,5 1,5 19,0 280,7 -6,6
18.01.2024 -0,7 0,8 -3,3 92,9 0,8 7,3 471,8 -4,2
19.01.2024 -2,3 6,0 -6,8 86,4 0,3 0,0 1420,5 -8,0
20.01.2024 -6,6 -2,8 -9,8 90,1 1,2 0,0 1889,4 -11,0
21.01.2024 -2,9 3,3 -7,0 87,0 3,6 0,0 1230,1 -7,1
22.01.2024 7,2 10,8 1,7 81,8 2,2 0,6 398,7 1,4
23.01.2024 7,5 9,8 4,6 79,2 1,6 6,6 1403,9 3,7
24.01.2024 11,4 13,9 5,8 72,2 2,3 0,6 1374,6 5,1
25.01.2024 8,4 12,1 5,5 79,9 0,9 0,3 1611,4 4,6
26.01.2024 8,8 13,3 5,4 81,7 1,7 1,0 881,3 5,0
27.01.2024 3,0 9,4 -1,2 80,3 0,8 0,0 2085,8 -2,4
28.01.2024 2,4 8,5 -2,6 80,8 1,6 0,1 2129,0 -3,7
29.01.2024 4,6 8,7 1,7 78,1 2,3 0,0 1845,0 1,2
30.01.2024 4,2 7,9 0,8 90,8 1,0 0,0 898,8 0,4
31.01.2024 5,9 10,0 1,9 84,1 0,7 0,0 1112,6 1,1
01.02.2024 6,9 10,7 -0,1 81,1 1,5 1,8 1404,4 -1,0
02.02.2024 6,2 11,9 -0,2 78,2 1,1 0,0 1698,2 -1,1
03.02.2024 9,5 11,5 7,8 81,1 1,3 0,0 876,4 7,5
04.02.2024 10,9 12,5 9,8 80,4 2,3 0,1 1394,8 9,5
05.02.2024 10,3 13,5 7,2 74,7 1,9 0,1 2182,2 6,7
06.02.2024 9,5 11,0 7,4 75,3 1,4 0,0 494,7 7,1
07.02.2024 8,7 12,7 4,2 83,9 1,5 14,3 669,1 4,0
08.02.2024 7,0 12,3 4,1 94,1 1,6 10,4 658,3 4,0
09.02.2024 11,8 14,8 9,8 84,3 2,2 3,1 1181,9 9,5
10.02.2024 10,5 12,8 8,7 91,1 1,1 0,3 975,1 8,3
11.02.2024 9,7 13,5 8,4 81,3 1,3 0,0 1403,6 7,8
12.02.2024 8,3 11,9 3,4 78,4 1,0 0,0 1136,4 2,5
13.02.2024 5,8 11,0 0,4 78,5 1,3 0,0 2245,7 -0,5
14.02.2024 9,9 12,0 7,2 82,3 1,9 0,3 605,6 7,0
15.02.2024 12,1 14,5 9,6 84,0 1,4 0,0 1419,2 9,3
16.02.2024 12,8 16,4 11,1 80,8 1,7 2,0 1046,0 10,6
17.02.2024 10,4 13,2 6,9 85,2 0,8 0,0 1238,8 5,8
18.02.2024 7,6 10,6 4,2 87,9 1,1 0,5 870,8 3,6
19.02.2024 10,4 12,6 8,5 77,3 1,6 0,2 1434,2 8,1
20.02.2024 8,8 11,8 6,8 75,6 1,2 0,1 1526,6 6,2
21.02.2024 8,7 10,9 5,4 75,2 2,1 1,9 1457,8 5,1
22.02.2024 10,4 12,4 8,2 84,5 2,0 5,0 881,3 7,9
23.02.2024 6,5 9,8 4,4 73,6 2,1 0,6 1834,7 3,6
24.02.2024 6,0 10,7 3,3 76,9 1,7 0,5 2417,8 3,0
25.02.2024 6,5 11,2 3,4 76,4 2,0 0,3 1555,4 3,1
26.02.2024 7,6 10,4 5,7 85,3 1,3 6,8 1434,9 5,5
27.02.2024 8,4 14,1 5,1 78,4 1,3 0,0 3010,4 4,6
28.02.2024 6,4 11,8 3,6 76,9 1,2 0,0 2707,5 2,6
29.02.2024 4,2 9,3 0,2 86,3 1,6 0,0 3488,4 -0,4
01.03.2024 6,5 10,6 1,5 81,1 1,9 0,0 1323,2 0,8
02.03.2024 8,6 14,7 4,3 77,4 1,7 0,0 2766,7 3,4
03.03.2024 10,0 18,0 5,3 76,4 1,1 0,0 3131,9 4,7
04.03.2024 8,2 9,3 6,8 86,7 1,5 0,0 593,3 6,0
05.03.2024 8,2 12,9 6,0 82,4 0,6 0,5 1114,4 4,8
06.03.2024 7,1 12,0 2,0 79,9 0,9 0,0 2427,5 1,6
07.03.2024 5,8 10,1 1,2 74,6 1,0 0,0 2651,6 -0,1
08.03.2024 6,5 11,5 1,9 64,5 1,8 0,1 3944,6 0,7
09.03.2024 8,4 13,4 4,0 66,5 1,7 0,0 3558,1 3,6
10.03.2024 8,7 12,3 5,9 74,8 1,0 0,6 1796,9 5,2
11.03.2024 8,8 14,3 5,8 80,2 0,9 7,1 1911,9 4,7
12.03.2024 8,5 12,3 6,8 80,6 1,0 3,7 1350,2 6,1
13.03.2024 9,7 13,4 7,3 93,8 1,4 2,2 1416,3 7,0
14.03.2024 11,6 18,1 7,6 87,0 1,0 0,0 2934,1 7,0
15.03.2024 11,3 18,1 6,8 84,5 1,2 0,4 1488,2 5,8
16.03.2024 9,5 13,2 5,3 83,1 1,4 0,3 1543,4 4,3
17.03.2024 8,6 13,4 3,1 81,0 1,3 0,1 2878,1 2,5
18.03.2024 10,5 15,0 8,3 89,3 1,0 3,2 2403,9 8,0
19.03.2024 9,6 14,9 6,2 91,1 1,2 0,0 3618,7 5,7
20.03.2024 11,0 19,6 4,4 79,0 1,0 0,0 4295,2 3,5
21.03.2024 10,7 16,6 5,8 80,6 1,4 0,0 3285,1 4,8
22.03.2024 11,8 18,9 8,0 78,2 0,7 0,0 2138,3 6,4
23.03.2024 6,7 11,2 2,6 80,1 1,8 4,3 3464,3 1,9
24.03.2024 6,8 10,5 4,0 75,4 2,0 1,1 3461,9 3,7
25.03.2024 7,4 13,5 1,8 66,1 1,4 0,0 5156,1 0,9
26.03.2024 9,0 15,0 4,8 62,5 1,8 0,0 3557,1 3,1
27.03.2024 8,3 11,9 4,8 79,4 1,2 0,0 1485,6 3,7
28.03.2024 8,4 13,6 4,2 73,4 2,4 0,6 3545,1 3,7
29.03.2024 9,4 12,4 6,6 86,2 2,8 6,4 1716,7 6,2
30.03.2024 11,2 14,3 7,7 85,7 1,7 0,0 1241,0 6,9
31.03.2024 12,3 18,5 8,0 82,3 1,3 2,6 3297,1 7,5
01.04.2024 10,1 14,3 6,7 86,3 1,0 7,8 1477,9 5,9
02.04.2024 11,0 15,7 5,9 71,0 1,4 0,0 3468,7 4,4
03.04.2024 11,3 15,0 9,1 81,7 1,9 1,4 1964,0 8,9
04.04.2024 12,6 16,8 8,4 79,7 1,7 2,1 2738,7 7,1
05.04.2024 16,2 22,5 10,5 72,2 2,1 0,0 3464,9 10,0
06.04.2024 18,8 26,7 11,5 60,1 1,9 0,0 5195,3 11,0
07.04.2024 19,3 24,9 13,3 58,8 1,6 0,0 4507,3 12,0
08.04.2024 18,8 27,2 11,9 63,3 1,4 0,0 4629,7 10,7
09.04.2024 13,3 18,9 7,9 63,4 1,3 0,1 1219,1 6,9
10.04.2024 10,7 17,5 4,9 64,3 1,0 0,0 4503,3 3,7
11.04.2024 11,2 19,8 2,2 68,6 0,8 0,0 4319,2 1,1
12.04.2024 13,3 20,1 6,4 79,5 0,8 0,0 2848,7 5,1
13.04.2024 16,2 25,0 8,2 75,6 1,4 0,0 5275,1 7,4
14.04.2024 16,0 21,9 11,4 71,8 1,0 0,0 4950,3 10,3
15.04.2024 11,5 18,0 4,8 67,3 2,0 3,1 5548,6 4,1
16.04.2024 7,8 13,4 3,9 78,6 2,3 3,6 3858,6 3,3
17.04.2024 7,2 10,3 3,2 78,3 1,7 1,2 3877,0 3,0
18.04.2024 7,1 12,9 3,1 76,3 1,5 3,4 3713,0 2,8
19.04.2024 7,0 11,5 4,4 83,7 2,1 8,8 2137,2 3,4
20.04.2024 7,1 11,6 4,7 80,2 2,1 3,3 4260,1 4,2
21.04.2024 5,0 10,5 1,5 80,1 1,6 5,5 2771,6 0,7
22.04.2024 4,7 10,9 -0,1 75,8 1,4 0,0 4968,5 -0,6
23.04.2024 5,8 13,0 -0,5 65,5 1,3 0,0 7082,0 -1,2
24.04.2024 6,2 12,4 1,4 74,9 1,6 0,9 4201,3 -0,1
25.04.2024 7,0 11,7 2,9 67,9 1,3 0,0 3777,4 2,2
26.04.2024 8,2 16,6 0,6 71,2 1,6 0,0 4088,8 -0,1
27.04.2024 12,9 22,1 3,5 70,6 1,7 0,0 5558,0 2,3
28.04.2024 13,2 16,7 9,7 71,7 1,3 0,0 2266,5 8,6
29.04.2024 14,0 21,3 8,0 74,8 1,3 0,0 5726,1 7,2
30.04.2024 17,2 26,9 8,1 69,3 1,2 0,0 6637,0 7,5
01.05.2024 18,3 27,4 10,3 70,5 1,1 0,0 5694,3 9,9
02.05.2024 16,9 25,0 10,2 78,7 1,1 16,2 5558,6 9,0
03.05.2024 12,3 16,5 7,3 80,0 1,1 16,7 2878,0 6,5
04.05.2024 11,9 17,9 5,0 82,2 1,3 1,4 4381,8 4,1
05.05.2024 15,0 20,0 11,0 76,8 0,9 0,0 4798,0 10,3
06.05.2024 14,5 17,1 12,3 90,7 0,8 9,5 1773,9 11,7
07.05.2024 14,3 18,6 11,4 82,0 0,9 0,1 2286,7 10,3
08.05.2024 14,3 20,3 8,4 75,4 1,1 0,0 5771,3 7,2
09.05.2024 14,7 24,2 8,5 74,2 0,8 0,0 5565,3 8,1
10.05.2024 15,5 25,0 7,3 68,5 0,9 0,0 6454,6 6,1
11.05.2024 16,8 25,6 7,9 66,9 1,1 0,0 7421,4 6,4
12.05.2024 17,9 26,8 9,0 68,6 1,2 0,0 7531,0 8,0
13.05.2024 17,4 26,2 11,1 80,7 0,9 1,6 4730,5 9,6
14.05.2024 19,4 27,6 10,5 67,2 1,3 0,0 7339,4 9,0
15.05.2024 15,9 19,9 11,9 84,3 0,7 6,4 2664,1 10,7
16.05.2024 17,5 23,3 13,9 78,1 1,1 4,9 5670,5 12,9
17.05.2024 14,6 15,7 13,5 94,0 0,6 12,8 821,5 13,1
18.05.2024 15,5 18,5 12,8 86,4 0,7 1,0 2669,9 12,1
19.05.2024 15,8 21,7 11,9 81,8 0,7 2,6 4486,4 11,3
20.05.2024 17,2 25,0 10,1 75,0 0,8 0,0 6370,7 8,9
21.05.2024 15,5 20,2 10,9 85,6 0,7 0,3 2432,3 10,5
22.05.2024 15,9 21,7 11,7 78,0 0,9 0,0 4294,4 10,8
23.05.2024 15,3 21,7 8,9 80,2 0,7 0,0 4272,6 7,8
24.05.2024 15,8 21,2 13,2 84,8 0,6 17,4 3791,1 12,5
25.05.2024 16,0 22,0 11,9 83,6 0,7 4,5 3759,1 10,9
26.05.2024 17,2 24,1 10,6 77,2 1,4 0,0 5256,2 9,9
27.05.2024 17,8 24,1 12,5 71,5 1,0 0,0 4958,9 11,6
28.05.2024 16,1 22,0 9,8 64,2 1,0 0,0 5645,9 9,0
29.05.2024 16,8 21,4 14,4 77,2 1,3 0,7 2426,1 13,3
30.05.2024 16,2 21,3 13,1 81,5 1,0 13,6 5320,3 12,5
31.05.2024 16,0 21,3 12,9 75,9 1,3 0,0 4905,9 12,4
01.06.2024 16,5 18,0 14,4 84,5 1,5 2,0 2068,0 13,7
02.06.2024 15,2 17,1 13,5 88,0 1,6 0,8 1037,9 13,1
03.06.2024 14,5 19,2 9,2 75,6 1,4 0,1 6585,3 8,5
04.06.2024 15,8 25,2 7,2 72,5 0,9 0,0 6531,0 6,6
05.06.2024 16,2 22,9 11,6 79,4 0,9 0,1 4407,7 10,8
06.06.2024 16,8 23,9 10,2 69,6 1,0 0,1 6339,0 9,2
07.06.2024 17,0 25,0 8,3 62,4 0,8 0,0 7299,0 7,5
08.06.2024 18,0 25,9 8,3 60,6 0,9 0,0 7753,9 7,6
09.06.2024 17,1 23,9 9,8 61,3 1,1 0,0 8437,7 9,2
10.06.2024 14,5 20,4 7,9 66,7 1,1 0,1 4495,7 7,2
11.06.2024 13,7 19,5 8,6 61,6 0,9 0,0 5242,7 7,8
12.06.2024 13,3 19,0 7,9 67,6 1,0 0,0 5361,0 7,3
13.06.2024 14,9 20,9 9,0 62,6 0,7 0,0 4981,4 8,4
14.06.2024 15,6 22,2 11,1 79,2 1,5 1,0 3343,7 10,5
15.06.2024 17,2 22,6 12,7 64,4 1,2 5,2 5836,4 11,9
16.06.2024 17,3 21,7 12,9 66,1 1,2 0,0 4337,0 12,3
17.06.2024 19,9 25,4 14,9 73,6 1,0 3,5 5702,8 14,2
18.06.2024 20,6 29,0 13,0 79,5 0,8 0,7 5433,2 12,4
19.06.2024 17,1 20,4 12,3 89,6 0,8 4,1 1832,4 11,7
20.06.2024 19,0 25,0 12,0 81,9 0,9 0,0 4723,3 11,4
21.06.2024 20,5 27,0 16,3 82,3 1,0 4,6 4104,6 16,0
22.06.2024 17,1 23,6 12,9 80,5 0,9 2,7 3621,6 12,5
23.06.2024 19,4 25,1 14,4 75,2 0,6 0,0 4948,2 13,7
24.06.2024 20,5 29,2 12,4 71,1 0,6 0,0 5749,2 11,8
25.06.2024 22,5 30,8 12,8 65,0 0,8 0,0 8188,3 12,3
26.06.2024 24,5 33,7 14,6 65,1 0,6 0,0 8062,0 14,0
27.06.2024 25,3 33,4 17,7 68,3 0,6 0,0 7662,0 17,2
28.06.2024 22,6 28,4 13,9 65,1 0,8 0,0 7048,4 13,1
29.06.2024 22,3 32,4 12,3 71,9 0,7 21,9 6440,7 11,7
30.06.2024 19,0 22,6 17,0 86,5 0,8 3,0 2276,9 16,6
01.07.2024 17,9 22,7 14,1 75,3 0,9 3,9 5414,4 13,5
02.07.2024 15,6 19,2 12,3 82,5 0,6 1,2 2333,5 11,6
03.07.2024 14,8 19,2 12,0 84,7 0,5 3,3 2821,4 11,5
04.07.2024 17,8 23,8 12,2 74,0 0,9 0,3 4625,3 11,5
05.07.2024 17,8 25,9 9,8 71,7 0,6 0,0 4226,2 9,3
06.07.2024 18,7 25,8 12,7 76,4 1,1 0,5 4483,3 11,8
07.07.2024 16,6 24,7 8,6 66,6 0,6 0,0 5879,1 7,9
08.07.2024 19,1 27,9 9,4 65,5 0,7 0,0 6944,7 8,9
09.07.2024 23,5 33,4 12,2 65,7 1,0 0,0 7874,3 11,6
10.07.2024 23,0 27,8 19,4 79,5 0,5 1,1 3643,3 19,0
11.07.2024 22,2 27,5 17,0 74,7 0,5 0,0 4320,9 16,3
12.07.2024 19,8 26,5 14,3 78,4 1,2 12,7 6272,2 13,8
13.07.2024 17,7 24,6 12,4 70,1 0,8 0,0 5765,3 11,7
14.07.2024 18,8 27,1 11,2 68,7 0,6 0,0 4751,0 10,7
15.07.2024 20,9 31,0 11,1 71,3 0,8 9,0 7097,1 10,5
16.07.2024 20,1 24,5 14,3 77,0 1,0 1,0 5402,5 13,6
17.07.2024 19,9 27,2 14,2 76,9 0,7 0,0 5675,0 13,6
18.07.2024 21,5 31,4 13,1 69,5 0,7 0,0 7484,0 12,5